Hamilton, Ohio
Current Conditions -  °F | °C
As of 10:53 AM on Friday 31 Oct 2014 (Local Time) from KHAO Reporting Station
Overcast Overcast  
Wind Chill: 44°   Ceiling: 5500
Heat Index: 46°   Visibility: 10mi
Dew Point: 43°   Wind: 5mph
Humidity: 89%   Direction: 250°WSW
Pressure: 29.96"   Gusts: NA
Location:  39.4°N, 84.56°W
Report Text: KHAO 311453Z AUTO 25004KT 10SM FEW045 BKN055 OVC070 08/06 A2996 RMK AO2 SLP150 T00780061 58006
Loading
Personal Weather Stations






























Interactive Weather Map
Tropical Storm Tracking
New forecast layout! Learn more

10-Day Weather Forecast

Advertisements
Track Severe Weather on mobile